Time;durP1;ratioP1;P1;durP2;ratioP2;P2;SDS_P1;SDS_P2;PMS_P1;PMS_P2;Temp;Humidity;BMP_temperature;BMP_pressure;BME280_temperature;BME280_humidity;BME280_pressure;Samples;Min_cycle;Max_cycle;Signal;HPM_P1;HPM_P2
2023/03/01 00:01:20;;;;;;;1999.90;999.90;;;0.70;1.00;;;;;;4954815;28;20049;-86
2023/03/01 00:03:46;;;;;;;1999.90;999.90;;;2.30;1.00;;;;;;4973502;28;20043;-85
2023/03/01 00:06:12;;;;;;;1999.90;999.90;;;;;;;;;;4974263;28;20062;-85
2023/03/01 00:08:38;;;;;;;1999.90;999.90;;;-0.50;1.00;;;;;;4972518;28;20046;-86
2023/03/01 00:11:17;;;;;;;1999.90;999.90;;;0.00;1.00;;;;;;4972440;28;20514;-85
2023/03/01 00:13:44;;;;;;;1999.90;999.90;;;0.70;1.00;;;;;;4971292;28;20149;-85
2023/03/01 00:16:23;;;;;;;1999.90;999.90;;;-2.50;1.00;;;;;;4957849;28;20321;-85
2023/03/01 00:18:50;;;;;;;1999.90;999.90;;;1.80;1.00;;;;;;4957495;28;20047;-85
2023/03/01 00:21:16;;;;;;;1999.90;999.90;;;0.10;1.00;;;;;;4957517;28;20125;-85
2023/03/01 00:23:42;;;;;;;1999.90;999.90;;;0.70;1.00;;;;;;4974524;28;20049;-85
2023/03/01 00:26:10;;;;;;;1999.90;999.90;;;2.60;1.00;;;;;;4974007;28;20051;-86
2023/03/01 00:28:35;;;;;;;;;;;1.60;1.00;;;;;;4974083;28;20407;-84
2023/03/01 00:31:09;;;;;;;1999.90;999.90;;;1.30;1.00;;;;;;4964987;28;19922;-85
2023/03/01 00:33:35;;;;;;;1999.90;999.90;;;0.40;1.00;;;;;;4953977;29;20110;-86
2023/03/01 00:36:02;;;;;;;1999.90;999.90;;;1.70;1.00;;;;;;4973763;28;20047;-86
2023/03/01 00:38:28;;;;;;;1999.90;999.90;;;2.30;1.00;;;;;;4974066;28;20133;-86
2023/03/01 00:40:53;;;;;;;1999.90;999.90;;;0.00;1.00;;;;;;4981746;28;20043;-86
2023/03/01 00:43:20;;;;;;;1999.90;999.90;;;1.20;1.00;;;;;;4993596;28;20053;-86
2023/03/01 00:45:45;;;;;;;1999.90;999.90;;;-0.20;1.00;;;;;;4965094;28;20051;-86
2023/03/01 00:48:11;;;;;;;1999.90;999.90;;;3.10;1.00;;;;;;4959170;28;20058;-86
2023/03/01 00:50:37;;;;;;;1999.90;999.90;;;0.90;1.00;;;;;;4970792;28;20042;-86
2023/03/01 00:53:03;;;;;;;1999.90;999.90;;;0.50;1.00;;;;;;4973152;28;20057;-85
2023/03/01 00:55:28;;;;;;;1999.90;999.90;;;1.60;1.00;;;;;;4971435;28;20483;-86
2023/03/01 00:57:54;;;;;;;1999.90;999.90;;;1.60;1.00;;;;;;4971717;28;20051;-85
2023/03/01 01:00:20;;;;;;;1999.90;999.90;;;1.80;1.00;;;;;;4955199;28;20051;-85
2023/03/01 01:02:46;;;;;;;1999.90;999.90;;;0.60;1.00;;;;;;4973374;28;20106;-85
2023/03/01 01:05:12;;;;;;;1999.90;999.90;;;0.70;1.00;;;;;;4975971;28;20113;-84
2023/03/01 01:07:38;;;;;;;1999.90;999.90;;;0.70;1.00;;;;;;4974301;28;20546;-83
2023/03/01 01:10:05;;;;;;;1999.90;999.90;;;1.40;6.00;;;;;;4958882;28;20446;-84
2023/03/01 01:12:30;;;;;;;1999.90;999.90;;;0.70;1.00;;;;;;4974906;28;20570;-84
2023/03/01 01:14:56;;;;;;;1999.90;999.90;;;3.30;1.00;;;;;;4958390;28;20146;-84
2023/03/01 01:17:22;;;;;;;1999.90;999.90;;;1.90;55.00;;;;;;4972782;28;20047;-85
2023/03/01 01:19:48;;;;;;;1999.90;999.90;;;2.00;93.60;;;;;;4972945;28;20051;-85
2023/03/01 01:22:13;;;;;;;1999.90;999.90;;;2.80;99.90;;;;;;4973076;28;20062;-85
2023/03/01 01:24:39;;;;;;;1999.90;999.90;;;3.90;99.60;;;;;;4972807;28;20050;-85
2023/03/01 01:27:05;;;;;;;1999.90;999.90;;;0.60;99.90;;;;;;4973094;28;20051;-85
2023/03/01 01:29:31;;;;;;;1999.90;999.90;;;0.40;99.90;;;;;;4985578;28;20046;-85
2023/03/01 01:31:56;;;;;;;1999.90;999.90;;;3.80;99.90;;;;;;4974456;28;20055;-85
2023/03/01 01:34:22;;;;;;;1999.90;999.90;;;2.00;99.90;;;;;;4976002;28;20117;-88
2023/03/01 01:36:53;;;;;;;1999.90;999.90;;;1.00;99.90;;;;;;4970534;28;20051;-85
2023/03/01 01:39:20;;;;;;;1999.90;999.90;;;0.30;99.90;;;;;;4963413;28;20050;-87
2023/03/01 01:41:46;;;;;;;1999.90;999.90;;;;;;;;;;4975588;28;20177;-90
2023/03/01 01:44:14;;;;;;;1999.90;999.90;;;0.80;99.90;;;;;;4975134;28;20038;-85
2023/03/01 01:46:56;;;;;;;1999.90;999.90;;;3.50;99.90;;;;;;4976361;28;20062;-85
2023/03/01 01:49:48;;;;;;;1999.90;999.90;;;0.30;99.90;;;;;;4976650;28;20525;-84
2023/03/01 01:52:20;;;;;;;1999.90;999.90;;;0.60;99.90;;;;;;4974710;28;20050;-86
2023/03/01 01:55:06;;;;;;;1999.90;999.90;;;0.40;99.90;;;;;;4959634;28;20536;-85
2023/03/01 01:57:45;;;;;;;1999.90;999.90;;;0.10;99.90;;;;;;4974961;28;20049;-85
2023/03/01 02:00:21;;;;;;;1999.90;999.90;;;0.30;99.90;;;;;;4973105;28;20059;-85
2023/03/01 02:02:51;;;;;;;1999.90;999.90;;;-0.50;99.90;;;;;;4964048;28;20150;-85
2023/03/01 02:05:17;;;;;;;1999.90;999.90;;;;;;;;;;4958412;28;20049;-85
2023/03/01 02:07:44;;;;;;;1999.90;999.90;;;-0.30;99.90;;;;;;4972856;28;20062;-85
2023/03/01 02:10:10;;;;;;;1999.90;999.90;;;0.50;99.90;;;;;;4976163;28;20134;-86
2023/03/01 02:12:37;;;;;;;1999.90;999.90;;;1.00;99.90;;;;;;4975130;28;20082;-85
2023/03/01 02:15:03;;;;;;;1999.90;999.90;;;-0.20;99.90;;;;;;4976385;28;20047;-86
2023/03/01 02:17:29;;;;;;;1999.90;999.90;;;0.50;99.90;;;;;;4974201;28;20043;-85
2023/03/01 02:20:10;;;;;;;1999.90;999.90;;;2.30;99.90;;;;;;4975597;28;20081;-87
2023/03/01 02:22:38;;;;;;;1999.90;999.90;;;-0.20;99.90;;;;;;4967126;28;20093;-86
2023/03/01 02:25:19;;;;;;;1999.90;999.90;;;1.30;99.90;;;;;;4964898;28;20590;-89
2023/03/01 02:28:11;;;;;;;1999.90;999.90;;;-0.20;99.90;;;;;;4975048;28;20435;-87
2023/03/01 02:30:37;;;;;;;1999.90;999.90;;;0.60;99.90;;;;;;4956332;28;20134;-86
2023/03/01 02:33:23;;;;;;;1999.90;999.90;;;0.60;99.90;;;;;;4952252;28;20138;-86
2023/03/01 02:35:49;;;;;;;1999.90;999.90;;;;;;;;;;4976379;28;20130;-89
2023/03/01 02:38:15;;;;;;;1999.90;999.90;;;-0.10;99.90;;;;;;4975306;28;20086;-86
2023/03/01 02:40:41;;;;;;;1999.90;999.90;;;0.70;99.90;;;;;;4973974;28;20082;-86
2023/03/01 02:43:11;;;;;;;1999.90;999.90;;;-0.20;99.90;;;;;;4959116;28;20396;-86
2023/03/01 02:45:42;;;;;;;1999.90;999.90;;;-0.30;99.90;;;;;;4958670;28;20043;-87
2023/03/01 02:48:08;;;;;;;1999.90;999.90;;;1.40;99.90;;;;;;4975340;28;20059;-87
2023/03/01 02:50:56;;;;;;;1999.90;999.90;;;-0.50;99.90;;;;;;4972352;28;20368;-87
2023/03/01 02:53:32;;;;;;;1999.90;999.90;;;-0.10;99.90;;;;;;4957486;28;20446;-88
2023/03/01 02:55:59;;;;;;;1999.90;999.90;;;1.10;99.90;;;;;;4959951;28;20165;-87
2023/03/01 02:58:24;;;;;;;1999.90;999.90;;;-0.70;99.90;;;;;;4921605;29;20043;-87
2023/03/01 03:00:50;;;;;;;1999.90;999.90;;;1.00;99.90;;;;;;4971847;28;20049;-87
2023/03/01 03:03:21;;;;;;;1999.90;999.90;;;-0.20;99.90;;;;;;4975156;28;20130;-88
2023/03/01 03:05:48;;;;;;;1999.90;999.90;;;1.10;99.90;;;;;;4955779;28;20396;-87
2023/03/01 03:08:19;;;;;;;1999.90;999.90;;;1.00;99.90;;;;;;4955165;29;20054;-86
2023/03/01 03:10:45;;;;;;;1999.90;999.90;;;-0.60;99.90;;;;;;4968576;28;20043;-87
2023/03/01 03:13:13;;;;;;;1999.90;999.90;;;0.00;99.90;;;;;;4974661;28;20058;-87
2023/03/01 03:15:40;;;;;;;1999.90;999.90;;;0.10;99.90;;;;;;4973744;28;20094;-87
2023/03/01 03:18:13;;;;;;;1999.90;999.90;;;0.40;99.90;;;;;;4975254;28;20047;-87
2023/03/01 03:20:40;;;;;;;1999.90;999.90;;;-0.20;99.90;;;;;;4974746;28;20054;-87
2023/03/01 03:23:06;;;;;;;1999.90;999.90;;;-0.70;99.90;;;;;;4975829;28;20093;-87
2023/03/01 03:25:32;;;;;;;1999.90;999.90;;;;;;;;;;4958908;28;20071;-92
2023/03/01 03:27:58;;;;;;;1999.90;999.90;;;;;;;;;;4963554;28;20047;-86
2023/03/01 03:30:27;;;;;;;1999.90;999.90;;;-0.60;99.90;;;;;;4969375;28;20357;-86
2023/03/01 03:32:54;;;;;;;1999.90;999.90;;;0.90;99.90;;;;;;4973170;28;20407;-88
2023/03/01 03:35:19;;;;;;;1999.90;999.90;;;-0.70;99.90;;;;;;4973402;28;20043;-87
2023/03/01 03:38:03;;;;;;;1999.90;999.90;;;-0.20;99.90;;;;;;4972283;28;20050;-87
2023/03/01 03:40:40;;;;;;;1999.90;999.90;;;-0.80;99.90;;;;;;4973597;28;20078;-88
2023/03/01 03:43:14;;;;;;;1999.90;999.90;;;0.50;99.90;;;;;;4973154;28;20109;-87
2023/03/01 03:45:41;;;;;;;1999.90;999.90;;;-1.80;99.90;;;;;;4973004;28;20054;-88
2023/03/01 03:48:09;;;;;;;1999.90;999.90;;;-1.30;99.90;;;;;;4953828;28;20129;-89
2023/03/01 03:50:35;;;;;;;1999.90;999.90;;;;;;;;;;4971294;28;20586;-91
2023/03/01 03:53:05;;;;;;;1999.90;999.90;;;1.20;99.90;;;;;;4973230;28;20046;-87
2023/03/01 03:55:31;;;;;;;1999.90;999.90;;;-1.70;99.90;;;;;;4972741;28;20054;-87
2023/03/01 03:58:06;;;;;;;1999.90;999.90;;;-0.30;99.90;;;;;;4971602;28;20079;-87
2023/03/01 04:00:43;;;;;;;1999.90;999.90;;;-0.90;99.90;;;;;;4955129;28;20051;-87
2023/03/01 04:03:09;;;;;;;1999.90;999.90;;;-0.80;99.90;;;;;;4959483;28;20053;-88
2023/03/01 04:05:36;;;;;;;1999.90;999.90;;;-0.50;99.90;;;;;;4954238;29;20051;-88
2023/03/01 04:08:02;;;;;;;1999.90;999.90;;;-2.10;99.90;;;;;;4954759;28;20412;-87
2023/03/01 04:10:36;;;;;;;1999.90;999.90;;;-0.40;99.90;;;;;;4938261;29;20053;-87
2023/03/01 04:13:03;;;;;;;1999.90;999.90;;;1.80;99.90;;;;;;4968015;28;20047;-87
2023/03/01 04:15:30;;;;;;;1999.90;999.90;;;-0.30;99.90;;;;;;4973374;28;20043;-86
2023/03/01 04:17:55;;;;;;;1999.90;999.90;;;-0.60;99.90;;;;;;4971367;28;20514;-87
2023/03/01 04:20:28;;;;;;;1999.90;999.90;;;1.40;99.90;;;;;;4957241;28;20090;-87
2023/03/01 04:23:10;;;;;;;1999.90;999.90;;;-1.00;86.80;;;;;;4966730;28;20050;-88
2023/03/01 04:25:40;;;;;;;1999.90;999.90;;;-0.10;99.90;;;;;;4954550;29;20051;-87
2023/03/01 04:28:07;;;;;;;1999.90;999.90;;;-1.50;99.90;;;;;;4969851;28;20488;-87
2023/03/01 04:30:35;;;;;;;1999.90;999.90;;;-0.20;99.90;;;;;;4971589;28;20049;-87
2023/03/01 04:33:10;;;;;;;;;;;0.90;99.90;;;;;;4956114;28;20066;-87
2023/03/01 04:35:37;;;;;;;1999.90;999.90;;;-2.10;99.90;;;;;;4974007;28;19922;-87
2023/03/01 04:38:04;;;;;;;1999.90;999.90;;;-1.50;99.90;;;;;;4976530;28;20047;-87
2023/03/01 04:40:30;;;;;;;1999.90;999.90;;;-0.90;99.90;;;;;;4976460;28;20046;-86
2023/03/01 04:42:56;;;;;;;1999.90;999.90;;;-1.40;99.90;;;;;;4977362;28;20138;-87
2023/03/01 04:45:21;;;;;;;1999.90;999.90;;;-0.30;99.90;;;;;;4975500;28;20057;-87
2023/03/01 04:47:47;;;;;;;1999.90;999.90;;;0.60;99.90;;;;;;4960708;28;20062;-87
2023/03/01 04:50:16;;;;;;;1999.90;999.90;;;0.10;99.90;;;;;;4978036;28;20054;-88
2023/03/01 04:52:43;;;;;;;1999.90;999.90;;;-1.10;99.90;;;;;;4960204;28;20082;-88
2023/03/01 04:55:09;;;;;;;1999.90;999.90;;;-1.20;96.60;;;;;;4976563;28;20042;-88
2023/03/01 04:57:35;;;;;;;1999.90;999.90;;;-0.60;99.90;;;;;;4976081;28;20368;-88
2023/03/01 05:00:19;;;;;;;1999.90;999.90;;;-1.60;99.90;;;;;;4973292;28;20575;-88
2023/03/01 05:03:05;;;;;;;1999.90;999.90;;;-0.30;67.20;;;;;;4959776;28;20086;-89
2023/03/01 05:05:34;;;;;;;1999.90;999.90;;;-1.50;99.90;;;;;;4975900;28;20065;-88
2023/03/01 05:08:04;;;;;;;1999.90;999.90;;;-1.20;86.70;;;;;;4975508;28;20058;-88
2023/03/01 05:10:31;;;;;;;1999.90;999.90;;;-1.30;95.60;;;;;;4975411;28;20505;-88
2023/03/01 05:12:57;;;;;;;1999.90;999.90;;;-1.30;72.80;;;;;;4977170;28;20079;-88
2023/03/01 05:15:27;;;;;;;1999.90;999.90;;;0.60;96.30;;;;;;4956869;28;20070;-88
2023/03/01 05:17:54;;;;;;;1999.90;999.90;;;-1.30;92.20;;;;;;4951049;28;20047;-87
2023/03/01 05:20:23;;;;;;;1999.90;999.90;;;-1.70;99.90;;;;;;4977069;28;20061;-88
2023/03/01 05:22:54;;;;;;;1999.90;999.90;;;-2.70;97.20;;;;;;4976588;28;20051;-88
2023/03/01 05:25:21;;;;;;;1999.90;999.90;;;-0.50;95.20;;;;;;4977069;28;20058;-88
2023/03/01 05:27:48;;;;;;;1999.90;999.90;;;-0.10;98.60;;;;;;4976196;28;20050;-91
2023/03/01 05:30:14;;;;;;;1999.90;999.90;;;-0.30;94.80;;;;;;4967419;28;20182;-88
2023/03/01 05:33:00;;;;;;;1999.90;999.90;;;-1.40;91.80;;;;;;4977857;28;20082;-91
2023/03/01 05:35:26;;;;;;;1999.90;999.90;;;;;;;;;;4975998;28;20054;-92
2023/03/01 05:37:52;;;;;;;1999.90;999.90;;;-0.90;96.50;;;;;;4960736;28;20487;-91
2023/03/01 05:40:21;;;;;;;1999.90;999.90;;;0.40;99.90;;;;;;4974804;28;20038;-91
2023/03/01 05:42:55;;;;;;;1999.90;999.90;;;0.80;51.80;;;;;;4957675;28;20051;-91
2023/03/01 05:45:24;;;;;;;1999.90;999.90;;;-1.70;99.90;;;;;;4974489;28;20121;-91
2023/03/01 05:47:50;;;;;;;1999.90;999.90;;;;;;;;;;4974739;28;20222;-90
2023/03/01 05:50:28;;;;;;;1999.90;999.90;;;-1.50;81.50;;;;;;4974737;28;20143;-90
2023/03/01 05:53:07;;;;;;;1999.90;999.90;;;0.30;95.00;;;;;;4977727;28;20047;-90
2023/03/01 05:55:34;;;;;;;1999.90;999.90;;;-1.90;95.30;;;;;;4977972;28;20058;-91
2023/03/01 05:58:01;;;;;;;1999.90;999.90;;;-1.80;95.40;;;;;;4974787;28;20090;-92
2023/03/01 06:00:28;;;;;;;1999.90;999.90;;;-0.40;97.10;;;;;;4977213;28;20459;-90
2023/03/01 06:02:56;;;;;;;1999.90;999.90;;;-1.50;90.10;;;;;;4977303;28;20126;-91
2023/03/01 06:05:22;;;;;;;1999.90;999.90;;;-0.20;98.90;;;;;;4975648;28;20183;-91
2023/03/01 06:07:49;;;;;;;1999.90;999.90;;;;;;;;;;4975784;28;20135;-90
2023/03/01 06:10:15;;;;;;;1999.90;999.90;;;-0.60;97.50;;;;;;4974839;28;20126;-90
2023/03/01 06:12:47;;;;;;;1999.90;999.90;;;-1.40;96.40;;;;;;4974659;28;20142;-90
2023/03/01 06:15:15;;;;;;;1999.90;999.90;;;0.10;99.90;;;;;;4976419;28;20043;-89
2023/03/01 06:17:45;;;;;;;1999.90;999.90;;;-1.70;96.20;;;;;;4969144;28;20083;-89
2023/03/01 06:20:20;;;;;;;1999.90;999.90;;;-1.50;99.90;;;;;;4968875;28;20047;-90
2023/03/01 06:22:47;;;;;;;1999.90;999.90;;;-1.70;99.90;;;;;;4959700;28;20059;-89
2023/03/01 06:25:19;;;;;;;1999.90;999.90;;;-1.50;98.00;;;;;;4957799;28;20050;-88
2023/03/01 06:27:45;;;;;;;1999.90;999.90;;;;;;;;;;4960465;28;20089;-88
2023/03/01 06:30:27;;;;;;;1999.90;999.90;;;-1.00;99.90;;;;;;4974274;28;20287;-88
2023/03/01 06:33:00;;;;;;;1999.90;999.90;;;-1.60;99.90;;;;;;4957602;28;20129;-88
2023/03/01 06:35:29;;;;;;;1999.90;999.90;;;;;;;;;;4974558;28;20078;-88
2023/03/01 06:37:55;;;;;;;1999.90;999.90;;;-1.40;99.90;;;;;;4973197;28;20439;-88
2023/03/01 06:40:21;;;;;;;1999.90;999.90;;;-2.50;99.90;;;;;;4974510;28;20077;-87
2023/03/01 06:42:50;;;;;;;1999.90;999.90;;;-1.40;96.50;;;;;;4974416;28;20049;-88
2023/03/01 06:45:18;;;;;;;1999.90;999.90;;;-1.30;95.90;;;;;;4974101;28;20053;-88
2023/03/01 06:47:47;;;;;;;1999.90;999.90;;;;;;;;;;4973664;28;20059;-87
2023/03/01 06:50:14;;;;;;;1999.90;999.90;;;-1.40;99.90;;;;;;4974055;28;20058;-88
2023/03/01 06:52:44;;;;;;;1999.90;999.90;;;-1.40;99.90;;;;;;4958548;28;20051;-88
2023/03/01 06:55:10;;;;;;;1999.90;999.90;;;-2.60;99.90;;;;;;4957022;28;20043;-86
2023/03/01 06:57:36;;;;;;;1999.90;999.90;;;;;;;;;;4957203;28;20046;-86
2023/03/01 07:00:06;;;;;;;1999.90;999.90;;;-0.30;99.90;;;;;;4971574;28;20043;-86
2023/03/01 07:02:32;;;;;;;1999.90;999.90;;;-1.20;99.90;;;;;;4966051;28;20050;-86
2023/03/01 07:04:58;;;;;;;1999.90;999.90;;;-2.10;99.90;;;;;;4972133;28;20050;-86
2023/03/01 07:07:24;;;;;;;1999.90;999.90;;;-0.80;99.90;;;;;;4970310;28;20043;-88
2023/03/01 07:09:50;;;;;;;1999.90;999.90;;;0.00;99.90;;;;;;4974517;28;20074;-87
2023/03/01 07:12:16;;;;;;;1999.90;999.90;;;-1.10;99.90;;;;;;4956937;28;20061;-87
2023/03/01 07:14:44;;;;;;;1999.90;999.90;;;-0.50;99.90;;;;;;4973327;28;20043;-87
2023/03/01 07:17:13;;;;;;;1999.90;999.90;;;;;;;;;;4968392;28;20046;-86
2023/03/01 07:19:39;;;;;;;1999.90;999.90;;;-0.70;86.80;;;;;;4966539;28;20047;-87
2023/03/01 07:22:07;;;;;;;1999.90;999.90;;;0.30;99.90;;;;;;4971276;28;20108;-87
2023/03/01 07:24:33;;;;;;;1999.90;999.90;;;;;;;;;;4952066;28;20134;-87
2023/03/01 07:27:00;;;;;;;1999.90;999.90;;;;;;;;;;4969789;28;20046;-87
2023/03/01 07:29:25;;;;;;;1999.90;999.90;;;-0.40;98.60;;;;;;4971546;28;20049;-86
2023/03/01 07:31:51;;;;;;;1999.90;999.90;;;-1.90;99.90;;;;;;4969252;28;20043;-87
2023/03/01 07:34:17;;;;;;;1999.90;999.90;;;-0.30;99.90;;;;;;4968728;28;20221;-87
2023/03/01 07:36:45;;;;;;;1999.90;999.90;;;2.80;99.90;;;;;;4970922;28;20035;-87
2023/03/01 07:39:11;;;;;;;;;;;2.70;99.90;;;;;;4970924;28;20119;-87
2023/03/01 07:41:37;;;;;;;1999.90;999.90;;;0.10;99.90;;;;;;4963295;28;19945;-87
2023/03/01 07:44:03;;;;;;;1999.90;999.90;;;;;;;;;;4967340;28;20043;-86
2023/03/01 07:46:32;;;;;;;1999.90;999.90;;;;;;;;;;4971464;28;20479;-86
2023/03/01 07:48:58;;;;;;;1999.90;999.90;;;0.10;99.90;;;;;;4953281;28;20042;-87
2023/03/01 07:51:27;;;;;;;1999.90;999.90;;;2.90;99.90;;;;;;4969655;28;20043;-88
2023/03/01 07:53:56;;;;;;;1999.90;999.90;;;-0.40;99.90;;;;;;4955879;28;20541;-88
2023/03/01 07:56:22;;;;;;;1999.90;999.90;;;;;;;;;;4971757;28;20042;-87
2023/03/01 07:58:48;;;;;;;1999.90;999.90;;;0.40;99.90;;;;;;4972435;28;20399;-87
2023/03/01 08:01:16;;;;;;;1999.90;999.90;;;0.80;99.90;;;;;;4968621;28;20051;-87
2023/03/01 08:03:45;;;;;;;1999.90;999.90;;;1.00;99.90;;;;;;4970576;28;20039;-88
2023/03/01 08:06:12;;;;;;;1999.90;999.90;;;1.00;99.90;;;;;;4970952;28;20120;-88
2023/03/01 08:08:40;;;;;;;1999.90;999.90;;;1.10;99.90;;;;;;4972476;28;20039;-87
2023/03/01 08:11:07;;;;;;;1999.90;999.90;;;1.60;99.90;;;;;;4953255;29;20039;-89
2023/03/01 08:13:34;;;;;;;1999.90;999.90;;;;;;;;;;4954973;28;20426;-88
2023/03/01 08:16:04;;;;;;;1999.90;999.90;;;1.40;99.90;;;;;;4970710;28;20053;-89
2023/03/01 08:18:31;;;;;;;1999.90;999.90;;;;;;;;;;4969027;28;20086;-89
2023/03/01 08:21:05;;;;;;;1999.90;999.90;;;1.60;99.90;;;;;;4973148;28;20431;-90
2023/03/01 08:23:30;;;;;;;1999.90;999.90;;;2.90;99.90;;;;;;4968698;28;20060;-89
2023/03/01 08:26:09;;;;;;;1999.90;999.90;;;3.30;99.90;;;;;;4968364;28;20118;-89
2023/03/01 08:28:35;;;;;;;1999.90;999.90;;;;;;;;;;4971995;28;20124;-88
2023/03/01 08:31:02;;;;;;;1999.90;999.90;;;;;;;;;;4959179;28;20051;-89
2023/03/01 08:33:33;;;;;;;1999.90;999.90;;;;;;;;;;4982040;28;20053;-90
2023/03/01 08:36:06;;;;;;;1999.90;999.90;;;;;;;;;;4979143;28;20054;-89
2023/03/01 08:38:34;;;;;;;1999.90;999.90;;;2.30;99.90;;;;;;4975375;28;20529;-88
2023/03/01 08:41:01;;;;;;;1999.90;999.90;;;2.40;99.90;;;;;;4961581;28;20176;-88
2023/03/01 08:43:27;;;;;;;1999.90;999.90;;;;;;;;;;4971608;28;20063;-87
2023/03/01 08:45:53;;;;;;;1999.90;999.90;;;2.50;68.10;;;;;;4973053;28;20262;-87
2023/03/01 08:48:18;;;;;;;1999.90;999.90;;;1.10;95.80;;;;;;4967042;28;20050;-86
2023/03/01 08:50:44;;;;;;;1999.90;999.90;;;2.60;54.50;;;;;;4970870;28;20109;-85
2023/03/01 08:53:10;;;;;;;1999.90;999.90;;;4.70;99.90;;;;;;4970913;28;20051;-86
2023/03/01 08:55:35;;;;;;;1999.90;999.90;;;6.40;99.90;;;;;;4973368;28;20039;-85
2023/03/01 08:58:01;;;;;;;1999.90;999.90;;;5.50;95.10;;;;;;4962147;28;20074;-87
2023/03/01 09:00:27;;;;;;;1999.90;999.90;;;8.40;99.90;;;;;;4984799;28;20442;-86
2023/03/01 09:02:53;;;;;;;1999.90;999.90;;;8.20;48.80;;;;;;4955379;28;20169;-86
2023/03/01 09:05:19;;;;;;;1999.90;999.90;;;9.50;24.50;;;;;;4955443;28;20490;-87
2023/03/01 09:07:44;;;;;;;1999.90;999.90;;;10.40;1.00;;;;;;4969604;28;20452;-87
2023/03/01 09:10:11;;;;;;;1999.90;999.90;;;11.90;99.90;;;;;;4953045;28;20731;-87
2023/03/01 09:12:36;;;;;;;1999.90;999.90;;;12.10;99.90;;;;;;4970889;28;20106;-87
2023/03/01 09:15:03;;;;;;;1999.90;999.90;;;;;;;;;;4940112;28;20050;-87
2023/03/01 09:17:29;;;;;;;1999.90;999.90;;;13.10;99.90;;;;;;4968369;28;20043;-86
2023/03/01 09:19:55;;;;;;;1999.90;999.90;;;13.70;99.90;;;;;;4971658;28;20125;-86
2023/03/01 09:22:20;;;;;;;1999.90;538.97;;;13.90;99.90;;;;;;4968196;28;20142;-86
2023/03/01 09:24:46;;;;;;;1999.90;281.38;;;13.90;99.90;;;;;;4937167;28;20141;-86
2023/03/01 09:27:13;;;;;;;1999.90;999.90;;;14.10;99.90;;;;;;4969333;28;20042;-86
2023/03/01 09:29:39;;;;;;;1999.90;382.20;;;14.20;99.90;;;;;;4959286;28;20054;-86
2023/03/01 09:32:06;;;;;;;1860.88;789.00;;;14.60;99.90;;;;;;4973267;28;20043;-86
2023/03/01 09:35:00;;;;;;;1716.97;262.70;;;15.10;99.90;;;;;;4998015;28;20117;-86
2023/03/01 09:37:17;;;;;;;1999.90;999.90;;;15.50;99.90;;;;;;4971400;28;20042;-86
2023/03/01 09:39:43;;;;;;;1999.90;999.90;;;16.10;99.90;;;;;;4963749;28;20039;-87
2023/03/01 09:42:12;;;;;;;1999.90;999.90;;;16.50;99.90;;;;;;4973783;28;20042;-87
2023/03/01 09:44:57;;;;;;;1999.90;646.10;;;17.20;99.90;;;;;;4991346;28;20058;-86
2023/03/01 09:47:32;;;;;;;1999.90;936.20;;;17.20;99.90;;;;;;4975539;28;20051;-89
2023/03/01 09:50:20;;;;;;;1999.90;999.90;;;17.20;99.90;;;;;;4976248;28;20471;-89
2023/03/01 09:52:54;;;;;;;1999.90;540.03;;;17.20;99.90;;;;;;4971648;28;20042;-87
2023/03/01 09:55:34;;;;;;;1999.90;999.90;;;16.80;99.90;;;;;;4974311;28;20038;-88
2023/03/01 09:58:16;;;;;;;1999.90;999.90;;;15.50;99.90;;;;;;4967378;28;20038;-89
2023/03/01 10:00:48;;;;;;;1999.90;999.90;;;14.20;99.90;;;;;;4975872;28;20522;-89
2023/03/01 10:03:43;;;;;;;1999.90;838.75;;;12.60;99.90;;;;;;4969471;28;20058;-90
2023/03/01 10:06:20;;;;;;;1999.90;999.90;;;11.70;99.90;;;;;;4971421;28;20062;-88
2023/03/01 10:09:07;;;;;;;1999.90;999.90;;;11.00;99.90;;;;;;4970336;28;20070;-88
2023/03/01 10:11:41;;;;;;;1999.90;999.90;;;10.40;99.90;;;;;;4971375;28;20042;-89
2023/03/01 10:14:34;;;;;;;1999.90;999.90;;;10.00;99.90;;;;;;4970293;28;20101;-89
2023/03/01 10:17:02;;;;;;;1999.90;999.90;;;9.60;99.90;;;;;;4966772;28;20133;-87
2023/03/01 10:19:34;;;;;;;1999.90;999.90;;;9.40;99.90;;;;;;4973048;28;20407;-87
2023/03/01 10:22:22;;;;;;;1999.90;999.90;;;9.20;99.90;;;;;;4972413;28;20364;-88
2023/03/01 10:24:49;;;;;;;1999.90;999.90;;;9.00;99.90;;;;;;4972082;28;20039;-87
2023/03/01 10:27:44;;;;;;;1999.90;999.90;;;9.20;99.90;;;;;;4971790;28;20053;-86
2023/03/01 10:30:42;;;;;;;1999.90;390.23;;;8.70;99.90;;;;;;4971115;28;20074;-91
2023/03/01 10:33:35;;;;;;;1999.90;373.95;;;9.00;99.90;;;;;;4953650;28;20050;-87
2023/03/01 10:36:01;;;;;;;1999.90;897.25;;;9.20;99.90;;;;;;4975745;28;20058;-88
2023/03/01 10:38:31;;;;;;;1830.55;789.85;;;9.20;99.90;;;;;;4968154;28;20054;-86
2023/03/01 10:41:06;;;;;;;1999.90;647.40;;;9.50;99.90;;;;;;4973012;28;20050;-88
2023/03/01 10:43:47;;;;;;;1999.90;584.05;;;8.90;99.90;;;;;;4959767;28;20054;-86
2023/03/01 10:46:34;;;;;;;1999.90;582.92;;;8.70;99.90;;;;;;4973394;28;20043;-90
2023/03/01 10:49:20;;;;;;;1999.90;687.42;;;8.70;99.90;;;;;;4963322;28;20163;-88
2023/03/01 10:51:52;;;;;;;1999.90;804.00;;;8.70;99.90;;;;;;4967090;28;20055;-88
2023/03/01 10:54:27;;;;;;;1999.90;504.75;;;8.70;99.90;;;;;;4973718;28;20043;-89
2023/03/01 10:57:05;;;;;;;1999.90;675.58;;;9.50;99.90;;;;;;4966829;28;20043;-90
2023/03/01 10:59:34;;;;;;;1999.90;846.38;;;9.40;99.90;;;;;;4972743;28;20126;-89
2023/03/01 11:02:17;;;;;;;1999.90;636.85;;;9.30;99.90;;;;;;4971860;28;20050;-90
2023/03/01 11:04:59;;;;;;;1999.90;676.30;;;9.60;99.90;;;;;;4973654;28;20130;-88
2023/03/01 11:07:25;;;;;;;1999.90;654.35;;;10.20;99.90;;;;;;4972114;28;20550;-88
2023/03/01 11:09:51;;;;;;;1999.90;826.33;;;9.60;99.90;;;;;;4975184;28;20046;-89
2023/03/01 11:12:17;;;;;;;1999.90;999.90;;;10.30;99.90;;;;;;4969777;28;20030;-88
2023/03/01 11:14:52;;;;;;;1999.90;999.90;;;11.20;99.90;;;;;;4969262;28;20624;-89
2023/03/01 11:17:31;;;;;;;1999.90;999.90;;;12.80;99.90;;;;;;4960731;28;20090;-87
2023/03/01 11:20:12;;;;;;;1999.90;999.90;;;13.80;99.90;;;;;;4954782;28;20391;-86
2023/03/01 11:22:52;;;;;;;1999.90;999.90;;;15.00;99.90;;;;;;4969463;28;20375;-86
2023/03/01 11:25:23;;;;;;;1999.90;999.90;;;15.40;99.90;;;;;;4974079;28;20038;-88
2023/03/01 11:27:49;;;;;;;1999.90;999.90;;;17.60;99.90;;;;;;4969726;28;20043;-86
2023/03/01 11:30:38;;;;;;;1999.90;999.90;;;14.80;99.90;;;;;;4962626;28;20470;-86
2023/03/01 11:33:28;;;;;;;1999.90;999.90;;;14.10;99.90;;;;;;4980013;28;20479;-86
2023/03/01 11:36:15;;;;;;;1999.90;999.90;;;13.40;99.90;;;;;;4967033;28;20402;-87
2023/03/01 11:38:44;;;;;;;1999.90;999.90;;;;;;;;;;4970086;28;20046;-88
2023/03/01 11:41:21;;;;;;;1999.90;999.90;;;12.00;99.90;;;;;;4954599;28;20045;-86
2023/03/01 11:44:03;;;;;;;1999.90;999.90;;;11.50;99.90;;;;;;4970508;28;20051;-87
2023/03/01 11:46:31;;;;;;;1999.90;999.90;;;11.10;99.90;;;;;;4969619;28;20073;-85
2023/03/01 11:49:10;;;;;;;1999.90;999.90;;;10.70;99.90;;;;;;4968777;28;20050;-86
2023/03/01 11:51:59;;;;;;;1999.90;999.90;;;10.30;99.90;;;;;;4971357;28;20043;-86
2023/03/01 11:54:39;;;;;;;1999.90;999.90;;;10.10;99.90;;;;;;4970204;28;20073;-89
2023/03/01 11:57:39;;;;;;;1999.90;999.90;;;9.90;99.90;;;;;;4967413;28;20069;-88
2023/03/01 12:00:24;;;;;;;1999.90;999.90;;;9.70;99.90;;;;;;4968092;28;20054;-91
2023/03/01 12:03:11;;;;;;;1999.90;999.90;;;9.50;99.90;;;;;;4955937;28;20055;-89
2023/03/01 12:06:03;;;;;;;1999.90;999.90;;;9.50;99.90;;;;;;4939201;28;21533;-89
2023/03/01 12:09:17;;;;;;;1999.90;999.90;;;9.50;99.90;;;;;;4955284;28;20558;-89
2023/03/01 12:11:52;;;;;;;1999.90;999.90;;;9.40;99.90;;;;;;4949484;28;20058;-88
2023/03/01 12:14:59;;;;;;;1999.90;999.90;;;9.50;99.90;;;;;;4953494;28;20039;-89
2023/03/01 12:17:27;;;;;;;1999.90;999.90;;;9.50;99.90;;;;;;4936579;28;20043;-89
2023/03/01 12:20:26;;;;;;;1999.90;999.90;;;9.60;99.90;;;;;;4968157;28;20146;-88
2023/03/01 12:23:30;;;;;;;1999.90;999.90;;;9.70;99.90;;;;;;4950627;28;20376;-88
2023/03/01 12:26:16;;;;;;;1999.90;999.90;;;10.60;99.90;;;;;;4969423;28;20043;-87
2023/03/01 12:28:41;;;;;;;1999.90;999.90;;;10.80;99.90;;;;;;4971350;28;20148;-86
2023/03/01 12:31:49;;;;;;;1999.90;999.90;;;8.20;99.90;;;;;;4970351;28;20098;-87
2023/03/01 12:34:27;;;;;;;1999.90;999.90;;;10.40;99.90;;;;;;4957613;28;20042;-88